Jomi — C6VK4 — position and weather

sailwx.info

Track history (hours):
 
Tides and Currents Weather Stations Pressure Air Temp Water Temp Dewpoint Dewpoint Depression Visibility Wind Speed Wind Dir Waves Ship Positions

Jomi

Last reported at 2018-May-21 09:01 UTC. Time now 2018-May-27 08:04 UTC.
Position N 58°22' E 003°46'.

Length 88 m; draft 5.8 m.

Type: Other ship. MMSI: 309701000.

Date/timePositionNaut miles runAvg speedWind from/ knotsBaromVisibWave heightAir tempDewpointWater temp
2018-May-21 09:01N 58°22' E 003°46'1 9.9
2018-May-21 08:53N 58°22' E 003°48'3110.2
2018-May-21 05:48N 58°19' E 004°48'310.4
2018-May-21 05:30N 58°19' E 004°54'5 9.9
2018-May-21 04:59N 58°17' E 005°02'5 9.5
2018-May-21 04:30N 58°15' E 005°10'5 9.7
2018-May-21 04:00N 58°13' E 005°19'5 9.5
2018-May-21 03:30N 58°11' E 005°28'5 9.3
2018-May-21 03:00N 58°10' E 005°36'5 9.2
2018-May-21 02:30N 58°08' E 005°44'5 9.7
2018-May-21 02:00N 58°06' E 005°53'510.0
2018-May-21 01:30N 58°04' E 006°01'510.2
2018-May-21 01:00N 58°02' E 006°10'510.3
2018-May-21 00:30N 58°00' E 006°19'510.6
2018-May-21 00:00N 57°59' E 006°28'510.8
2018-May-20 23:31N 57°57' E 006°38'510.7
2018-May-20 23:00N 57°54' E 006°47'510.5
2018-May-20 22:31N 57°53' E 006°56'610.7
2018-May-20 22:00N 57°53' E 007°07'510.8
2018-May-20 21:30N 57°53' E 007°17'510.7
2018-May-20 21:01N 57°53' E 007°27'610.9
2018-May-20 20:30N 57°52' E 007°37'510.9
2018-May-20 20:00N 57°52' E 007°47'611.0
2018-May-20 19:30N 57°52' E 007°58'510.7
2018-May-20 19:00N 57°51' E 008°08'510.5
2018-May-20 18:30N 57°51' E 008°18'510.5
2018-May-20 18:01N 57°51' E 008°27'4910.2
2018-May-20 13:14N 57°50' E 009°59'210.2
2018-May-20 13:00N 57°50' E 010°04'510.1
2018-May-20 12:30N 57°50' E 010°13'510.2
2018-May-20 12:01N 57°50' E 010°23'510.2
2018-May-20 11:30N 57°49' E 010°32'510.1
2018-May-20 11:01N 57°49' E 010°42'4 8.4
2018-May-20 10:30N 57°46' E 010°47'5 9.7
2018-May-20 10:00N 57°41' E 010°48'4 8.8
2018-May-20 09:30N 57°41' E 010°40'0 0.1
2018-May-20 08:56N 57°41' E 010°40'0 0.0
2018-May-20 08:29N 57°41' E 010°40'0 0.0
2018-May-20 07:59N 57°41' E 010°40'0 0.0
2018-May-20 07:29N 57°41' E 010°40'0 0.1
2018-May-20 06:59N 57°41' E 010°40'2 3.8
2018-May-20 06:30N 57°40' E 010°43'5 9.9
2018-May-20 06:00N 57°36' E 010°50'5 9.9
2018-May-20 05:30N 57°33' E 010°57'5 9.9
2018-May-20 05:00N 57°30' E 011°04'510.1
2018-May-20 04:30N 57°28' E 011°12'510.4
2018-May-20 04:00N 57°26' E 011°22'5 9.6
2018-May-20 03:30N 57°23' E 011°29'510.7
2018-May-20 03:00N 57°18' E 011°32'510.7
2018-May-20 02:30N 57°13' E 011°36'510.7
2018-May-20 02:00N 57°08' E 011°39'510.7
2018-May-20 01:30N 57°03' E 011°43'510.5
2018-May-20 01:00N 56°58' E 011°46'510.3
2018-May-20 00:30N 56°53' E 011°49'5 9.9
2018-May-20 00:00N 56°49' E 011°52'5 9.8
2018-May-19 23:30N 56°44' E 011°55'5 9.8
2018-May-19 23:00N 56°39' E 011°58'5 9.5
2018-May-19 22:30N 56°35' E 011°59'5 9.4
2018-May-19 22:00N 56°30' E 012°01'5 9.3
2018-May-19 21:30N 56°25' E 012°03'5 9.3
2018-May-19 21:00N 56°21' E 012°05'5 9.2
2018-May-19 20:29N 56°17' E 012°09'5 9.7
2018-May-19 20:00N 56°14' E 012°16'510.0
2018-May-19 19:30N 56°11' E 012°23'510.4
2018-May-19 19:00N 56°08' E 012°31'611.6
2018-May-19 18:30N 56°04' E 012°38'510.7
2018-May-19 18:00N 55°59' E 012°42'510.3
2018-May-19 17:30N 55°54' E 012°45'510.2
2018-May-19 17:00N 55°49' E 012°43'510.4
2018-May-19 16:30N 55°44' E 012°41'510.3
2018-May-19 16:00N 55°39' E 012°42'5 9.8
2018-May-19 15:30N 55°34' E 012°42'5 9.3
2018-May-19 15:00N 55°29' E 012°43'5 9.7
2018-May-19 14:30N 55°24' E 012°41'5 9.7
2018-May-19 14:00N 55°20' E 012°41'5 9.3
2018-May-19 13:30N 55°17' E 012°47'5 9.9
2018-May-19 13:00N 55°16' E 012°56'610.3
2018-May-19 12:25N 55°16' E 013°07'510.3
2018-May-19 11:58N 55°15' E 013°15'2510.1
2018-May-19 09:32N 55°14' E 013°58'110.2
2018-May-19 09:25N 55°14' E 013°60'510.2
2018-May-19 08:57N 55°14' E 014°08'5 9.7
2018-May-19 08:24N 55°15' E 014°17'510.2
2018-May-19 07:57N 55°19' E 014°22'410.1
2018-May-19 07:30N 55°22' E 014°27'510.2
2018-May-19 07:00N 55°26' E 014°33'510.1
2018-May-19 06:30N 55°29' E 014°40'510.2
2018-May-19 06:00N 55°32' E 014°48'510.2
2018-May-19 05:30N 55°34' E 014°56'510.4
2018-May-19 05:00N 55°37' E 015°04'510.3
2018-May-19 04:30N 55°39' E 015°12'510.3
2018-May-19 04:00N 55°42' E 015°20'510.3
2018-May-19 03:30N 55°44' E 015°27'510.3
2018-May-19 03:00N 55°47' E 015°35'510.6
2018-May-19 02:30N 55°50' E 015°43'510.6
2018-May-19 02:00N 55°52' E 015°52'510.6
2018-May-19 01:30N 55°55' E 016°00'510.4
2018-May-19 01:00N 55°57' E 016°08'510.5
2018-May-19 00:30N 55°60' E 016°16'510.5
2018-May-19 00:00N 56°02' E 016°25'510.4
2018-May-18 23:30N 56°05' E 016°33'510.3
2018-May-18 23:00N 56°08' E 016°40'510.2
2018-May-18 22:30N 56°11' E 016°48'510.0
2018-May-18 22:00N 56°14' E 016°55'510.0
2018-May-18 21:30N 56°17' E 017°02'710.0
2018-May-18 20:48N 56°21' E 017°13'310.1
2018-May-18 20:29N 56°23' E 017°17'610.1
2018-May-18 19:55N 56°26' E 017°26'  
2018-May-14 13:52N 54°56' E 019°38'410.7
2018-May-14 13:30N 54°52' E 019°38'510.7
2018-May-14 13:00N 54°47' E 019°38'  
Track history (hours):
 
Tides and Currents Weather Stations Pressure Air Temp Water Temp Dewpoint Dewpoint Depression Visibility Wind Speed Wind Dir Waves Ship Positions

Jomi

Last reported at 2018-May-21 09:01 UTC. Time now 2018-May-27 08:04 UTC.
Position N 58°22' E 003°46'.

Length 88 m; draft 5.8 m.

Type: Other ship. MMSI: 309701000.

Date/timePositionNaut miles runAvg speedWind from/ knotsBaromVisibWave heightAir tempDewpointWater temp
2018-May-21 09:01N 58°22' E 003°46'1 9.9
2018-May-21 08:53N 58°22' E 003°48'3110.2
2018-May-21 05:48N 58°19' E 004°48'310.4
2018-May-21 05:30N 58°19' E 004°54'5 9.9
2018-May-21 04:59N 58°17' E 005°02'5 9.5
2018-May-21 04:30N 58°15' E 005°10'5 9.7
2018-May-21 04:00N 58°13' E 005°19'5 9.5
2018-May-21 03:30N 58°11' E 005°28'5 9.3
2018-May-21 03:00N 58°10' E 005°36'5 9.2
2018-May-21 02:30N 58°08' E 005°44'5 9.7
2018-May-21 02:00N 58°06' E 005°53'510.0
2018-May-21 01:30N 58°04' E 006°01'510.2
2018-May-21 01:00N 58°02' E 006°10'510.3
2018-May-21 00:30N 58°00' E 006°19'510.6
2018-May-21 00:00N 57°59' E 006°28'510.8
2018-May-20 23:31N 57°57' E 006°38'510.7
2018-May-20 23:00N 57°54' E 006°47'510.5
2018-May-20 22:31N 57°53' E 006°56'610.7
2018-May-20 22:00N 57°53' E 007°07'510.8
2018-May-20 21:30N 57°53' E 007°17'510.7
2018-May-20 21:01N 57°53' E 007°27'610.9
2018-May-20 20:30N 57°52' E 007°37'510.9
2018-May-20 20:00N 57°52' E 007°47'611.0
2018-May-20 19:30N 57°52' E 007°58'510.7
2018-May-20 19:00N 57°51' E 008°08'510.5
2018-May-20 18:30N 57°51' E 008°18'510.5
2018-May-20 18:01N 57°51' E 008°27'4910.2
2018-May-20 13:14N 57°50' E 009°59'210.2
2018-May-20 13:00N 57°50' E 010°04'510.1
2018-May-20 12:30N 57°50' E 010°13'510.2
2018-May-20 12:01N 57°50' E 010°23'510.2
2018-May-20 11:30N 57°49' E 010°32'510.1
2018-May-20 11:01N 57°49' E 010°42'4 8.4
2018-May-20 10:30N 57°46' E 010°47'5 9.7
2018-May-20 10:00N 57°41' E 010°48'4 8.8
2018-May-20 09:30N 57°41' E 010°40'0 0.1
2018-May-20 08:56N 57°41' E 010°40'0 0.0
2018-May-20 08:29N 57°41' E 010°40'0 0.0
2018-May-20 07:59N 57°41' E 010°40'0 0.0
2018-May-20 07:29N 57°41' E 010°40'0 0.1
2018-May-20 06:59N 57°41' E 010°40'2 3.8
2018-May-20 06:30N 57°40' E 010°43'5 9.9
2018-May-20 06:00N 57°36' E 010°50'5 9.9
2018-May-20 05:30N 57°33' E 010°57'5 9.9
2018-May-20 05:00N 57°30' E 011°04'510.1
2018-May-20 04:30N 57°28' E 011°12'510.4
2018-May-20 04:00N 57°26' E 011°22'5 9.6
2018-May-20 03:30N 57°23' E 011°29'510.7
2018-May-20 03:00N 57°18' E 011°32'510.7
2018-May-20 02:30N 57°13' E 011°36'510.7
2018-May-20 02:00N 57°08' E 011°39'510.7
2018-May-20 01:30N 57°03' E 011°43'510.5
2018-May-20 01:00N 56°58' E 011°46'510.3
2018-May-20 00:30N 56°53' E 011°49'5 9.9
2018-May-20 00:00N 56°49' E 011°52'5 9.8
2018-May-19 23:30N 56°44' E 011°55'5 9.8
2018-May-19 23:00N 56°39' E 011°58'5 9.5
2018-May-19 22:30N 56°35' E 011°59'5 9.4
2018-May-19 22:00N 56°30' E 012°01'5 9.3
2018-May-19 21:30N 56°25' E 012°03'5 9.3
2018-May-19 21:00N 56°21' E 012°05'5 9.2
2018-May-19 20:29N 56°17' E 012°09'5 9.7
2018-May-19 20:00N 56°14' E 012°16'510.0
2018-May-19 19:30N 56°11' E 012°23'510.4
2018-May-19 19:00N 56°08' E 012°31'611.6
2018-May-19 18:30N 56°04' E 012°38'510.7
2018-May-19 18:00N 55°59' E 012°42'510.3
2018-May-19 17:30N 55°54' E 012°45'510.2
2018-May-19 17:00N 55°49' E 012°43'510.4
2018-May-19 16:30N 55°44' E 012°41'510.3
2018-May-19 16:00N 55°39' E 012°42'5 9.8
2018-May-19 15:30N 55°34' E 012°42'5 9.3
2018-May-19 15:00N 55°29' E 012°43'5 9.7
2018-May-19 14:30N 55°24' E 012°41'5 9.7
2018-May-19 14:00N 55°20' E 012°41'5 9.3
2018-May-19 13:30N 55°17' E 012°47'5 9.9
2018-May-19 13:00N 55°16' E 012°56'610.3
2018-May-19 12:25N 55°16' E 013°07'510.3
2018-May-19 11:58N 55°15' E 013°15'2510.1
2018-May-19 09:32N 55°14' E 013°58'110.2
2018-May-19 09:25N 55°14' E 013°60'510.2
2018-May-19 08:57N 55°14' E 014°08'5 9.7
2018-May-19 08:24N 55°15' E 014°17'510.2
2018-May-19 07:57N 55°19' E 014°22'410.1
2018-May-19 07:30N 55°22' E 014°27'510.2
2018-May-19 07:00N 55°26' E 014°33'510.1
2018-May-19 06:30N 55°29' E 014°40'510.2
2018-May-19 06:00N 55°32' E 014°48'510.2
2018-May-19 05:30N 55°34' E 014°56'510.4
2018-May-19 05:00N 55°37' E 015°04'510.3
2018-May-19 04:30N 55°39' E 015°12'510.3
2018-May-19 04:00N 55°42' E 015°20'510.3
2018-May-19 03:30N 55°44' E 015°27'510.3
2018-May-19 03:00N 55°47' E 015°35'510.6
2018-May-19 02:30N 55°50' E 015°43'510.6
2018-May-19 02:00N 55°52' E 015°52'510.6
2018-May-19 01:30N 55°55' E 016°00'510.4
2018-May-19 01:00N 55°57' E 016°08'510.5
2018-May-19 00:30N 55°60' E 016°16'510.5
2018-May-19 00:00N 56°02' E 016°25'510.4
2018-May-18 23:30N 56°05' E 016°33'510.3
2018-May-18 23:00N 56°08' E 016°40'510.2
2018-May-18 22:30N 56°11' E 016°48'510.0
2018-May-18 22:00N 56°14' E 016°55'510.0
2018-May-18 21:30N 56°17' E 017°02'710.0
2018-May-18 20:48N 56°21' E 017°13'310.1
2018-May-18 20:29N 56°23' E 017°17'610.1
2018-May-18 19:55N 56°26' E 017°26'  
2018-May-14 13:52N 54°56' E 019°38'410.7
2018-May-14 13:30N 54°52' E 019°38'510.7
2018-May-14 13:00N 54°47' E 019°38'  

Dump ship's entire track history